Time;durP1;ratioP1;P1;durP2;ratioP2;P2;SDS_P1;SDS_P2;PMS_P1;PMS_P2;Temp;Humidity;BMP_temperature;BMP_pressure;BME280_temperature;BME280_humidity;BME280_pressure;Samples;Min_cycle;Max_cycle;Signal;HPM_P1;HPM_P2
2021/03/02 00:09:11;;;;;;;;;;;;;;;;;;;;;
2021/03/02 00:11:54;;;;;;;;;;;;;;;;;;;;;
2021/03/02 00:15:11;;;;;;;;;;;;;;;;;;;;;
2021/03/02 00:18:12;;;;;;;51.75;35.35;;;;;;;4.92;60.35;95238.66;4877056;28;20604;-83
2021/03/02 00:21:13;;;;;;;;;;;;;;;;;;;;;
2021/03/02 00:24:02;;;;;;;47.03;30.95;;;;;;;4.69;60.54;95192.94;4863363;28;20122;-84
2021/03/02 00:26:43;;;;;;;55.38;34.13;;;;;;;5.31;59.86;95269.66;4872144;29;20044;-84
2021/03/02 00:29:31;;;;;;;;;;;;;;;;;;;;;
2021/03/02 00:32:03;;;;;;;52.28;32.05;;;;;;;4.74;60.30;95200.94;4917735;28;20037;-83
2021/03/02 00:34:41;;;;;;;;;;;;;;;;;;;;;
2021/03/02 00:37:26;;;;;;;;;;;;;;;;;;;;;
2021/03/02 00:40:04;;;;;;;36.40;26.13;;;;;;;4.98;60.96;95259.53;4944841;28;20525;-83
2021/03/02 00:42:35;;;;;;;42.63;28.75;;;;;;;4.68;60.62;95212.31;4938809;28;20050;-83
2021/03/02 00:48:10;;;;;;;34.88;22.92;;;;;;;4.94;60.66;95252.31;4900126;28;20141;-83
2021/03/02 00:50:38;;;;;;;41.50;25.13;;;;;;;4.65;60.91;95215.34;4949126;28;20080;-83
2021/03/02 00:53:21;;;;;;;35.63;22.48;;;;;;;4.38;61.26;95193.06;4952361;28;20055;-84
2021/03/02 00:55:49;;;;;;;34.50;22.33;;;;;;;4.33;61.07;95172.78;4919310;28;20033;-83
2021/03/02 00:58:25;;;;;;;34.13;23.33;;;;;;;4.48;61.00;95193.38;4953993;28;20034;-84
2021/03/02 01:00:56;;;;;;;35.40;23.58;;;;;;;4.60;61.34;95236.13;4916629;28;20053;-83
2021/03/02 01:03:48;;;;;;;40.22;26.48;;;;;;;4.36;62.22;95203.75;4906046;28;20487;-83
2021/03/02 01:06:30;;;;;;;40.85;26.00;;;;;;;4.47;61.61;95199.63;4940180;28;20050;-84
2021/03/02 01:09:05;;;;;;;42.03;25.80;;;;;;;4.76;61.91;95246.06;4905773;28;20050;-83
2021/03/02 01:11:41;;;;;;;39.53;25.77;;;;;;;4.33;61.88;95187.69;4900731;28;20047;-83
2021/03/02 01:14:33;;;;;;;22.75;14.70;;;;;;;4.31;61.47;95194.94;4933132;28;20074;-83
2021/03/02 01:17:32;;;;;;;18.00;12.32;;;;;;;4.56;61.19;95226.31;4924217;28;20044;-84
2021/03/02 01:20:07;;;;;;;16.30;12.00;;;;;;;4.30;61.56;95209.84;4905206;28;20115;-83
2021/03/02 01:22:35;;;;;;;18.42;13.15;;;;;;;4.16;61.77;95186.59;4961014;28;20018;-83
2021/03/02 01:25:27;;;;;;;;;;;;;;;;;;;;;
2021/03/02 01:27:59;;;;;;;24.05;16.35;;;;;;;4.19;62.17;95202.72;4936847;28;20050;-83
2021/03/02 01:30:58;;;;;;;30.02;19.00;;;;;;;4.08;62.08;95176.44;4875792;28;20067;-84
2021/03/02 01:33:58;;;;;;;;;;;;;;;;;;;;;
2021/03/02 01:39:18;;;;;;;25.42;15.30;;;;;;;3.79;63.39;95202.22;4957829;28;20109;-84
2021/03/02 01:41:57;;;;;;;19.10;12.35;;;;;;;3.89;63.40;95197.31;4906398;28;20042;-83
2021/03/02 01:44:32;;;;;;;17.67;11.98;;;;;;;3.79;63.08;95181.28;4946801;28;20057;-84
2021/03/02 01:47:11;;;;;;;;;;;;;;;3.89;63.83;95218.22;4940607;28;20049;-83
2021/03/02 01:49:42;;;;;;;19.60;14.35;;;;;;;3.86;63.59;95197.72;4974571;28;19926;-83
2021/03/02 01:52:10;;;;;;;16.35;10.35;;;;;;;4.09;62.99;95236.41;4974245;28;20507;-83
2021/03/02 01:54:40;;;;;;;17.98;13.07;;;;;;;3.44;63.03;95140.91;4919947;28;20527;-83
2021/03/02 01:57:11;;;;;;;23.13;14.60;;;;;;;3.45;63.22;95147.75;4906618;28;20122;-84
2021/03/02 01:59:37;;;;;;;26.33;17.20;;;;;;;4.10;63.08;95235.38;4937521;28;20034;-83
2021/03/02 02:02:16;;;;;;;28.25;19.33;;;;;;;4.13;63.46;95240.19;4919901;28;20073;-83
2021/03/02 02:04:58;;;;;;;;;;;;;;;;;;;;;
2021/03/02 02:07:41;;;;;;;42.08;25.48;;;;;;;3.82;64.74;95207.00;4962315;28;20045;-83
2021/03/02 02:10:40;;;;;;;;;;;;;;;;;;;;;
2021/03/02 02:13:28;;;;;;;;;;;;;;;;;;;;;
2021/03/02 02:16:24;;;;;;;22.60;14.95;;;;;;;3.90;63.84;95204.16;4942094;28;20414;-84
2021/03/02 02:18:59;;;;;;;22.90;15.63;;;;;;;3.44;64.51;95157.41;4907857;28;20038;-84
2021/03/02 02:22:03;;;;;;;24.15;15.02;;;;;;;3.21;65.03;95131.03;4907960;28;20045;-83
2021/03/02 02:24:49;;;;;;;23.00;14.90;;;;;;;3.32;64.89;95137.38;4867327;28;20144;-83
2021/03/02 02:27:22;;;;;;;25.42;16.58;;;;;;;3.57;64.38;95158.34;4915430;28;20050;-84
2021/03/02 02:29:53;;;;;;;29.42;19.45;;;;;;;3.25;64.67;95132.19;4901635;28;20038;-84
2021/03/02 02:32:36;;;;;;;31.13;19.65;;;;;;;3.59;65.38;95201.53;4961286;28;20604;-84
2021/03/02 02:38:03;;;;;;;33.53;23.45;;;;;;;3.75;65.85;95237.63;4923536;28;20551;-83
2021/03/02 02:40:46;;;;;;;31.45;20.30;;;;;;;3.43;65.09;95176.69;4977224;28;20039;-83
2021/03/02 02:43:37;;;;;;;32.42;21.73;;;;;;;3.84;65.13;95249.44;4865245;28;20066;-84
2021/03/02 02:46:19;;;;;;;38.83;22.00;;;;;;;3.60;65.07;95216.22;4853765;29;20477;-84
2021/03/02 02:49:09;;;;;;;36.40;22.85;;;;;;;3.24;66.16;95189.88;4953096;28;20038;-84
2021/03/02 02:52:14;;;;;;;36.40;23.15;;;;;;;3.64;66.56;95251.38;4926524;28;20046;-84
2021/03/02 02:55:05;;;;;;;;;;;;;;;;;;;;;
2021/03/02 02:58:02;;;;;;;37.33;22.95;;;;;;;3.23;67.87;95217.00;4897649;28;20051;-84
2021/03/02 03:00:30;;;;;;;34.72;22.13;;;;;;;3.38;68.18;95241.06;4927242;28;20050;-83
2021/03/02 03:03:19;;;;;;;37.05;22.55;;;;;;;2.73;68.50;95143.72;4882385;28;20390;-84
2021/03/02 03:06:18;;;;;;;;;;;;;;;;;;;;;
2021/03/02 03:09:12;;;;;;;34.53;22.63;;;;;;;3.30;68.68;95249.13;4885800;28;20046;-83
2021/03/02 03:12:19;;;;;;;34.78;22.45;;;;;;;3.11;68.39;95200.41;4868850;28;20060;-84
2021/03/02 03:15:23;;;;;;;29.25;19.30;;;;;;;3.45;68.76;95252.28;4920878;28;20066;-83
2021/03/02 03:18:07;;;;;;;;;;;;;;;;;;;;;
2021/03/02 03:20:48;;;;;;;31.83;20.52;;;;;;;2.90;68.26;95170.94;4910782;28;20053;-83
2021/03/02 03:23:32;;;;;;;;;;;;;;;;;;;;;
2021/03/02 03:26:31;;;;;;;34.92;21.15;;;;;;;3.03;69.18;95223.13;4910262;28;20045;-83
2021/03/02 03:29:01;;;;;;;35.17;21.55;;;;;;;3.25;68.92;95268.06;4939154;28;20998;-83
2021/03/02 03:31:55;;;;;;;35.80;19.95;;;;;;;3.21;68.97;95255.63;4960025;28;20085;-83
2021/03/02 03:34:42;;;;;;;31.95;18.58;;;;;;;3.24;68.42;95260.41;4897016;28;20043;-83
2021/03/02 03:37:10;;;;;;;29.00;18.83;;;;;;;2.93;68.58;95230.56;4921868;28;20152;-83
2021/03/02 03:39:39;;;;;;;30.70;19.58;;;;;;;2.41;68.99;95162.88;4905882;28;20097;-83
2021/03/02 03:42:18;;;;;;;29.17;17.70;;;;;;;2.66;69.26;95210.78;4910510;28;20128;-83
2021/03/02 03:44:49;;;;;;;28.38;15.95;;;;;;;2.93;69.43;95264.53;4902649;28;20054;-83
2021/03/02 03:47:26;;;;;;;29.20;16.40;;;;;;;2.37;69.46;95175.53;4912862;28;20677;-83
2021/03/02 03:50:15;;;;;;;23.63;14.55;;;;;;;2.92;69.58;95268.16;4928177;28;20104;-83
2021/03/02 03:52:58;;;;;;;22.52;14.15;;;;;;;2.86;69.94;95268.97;4912989;28;20047;-83
2021/03/02 03:55:29;;;;;;;17.95;12.90;;;;;;;2.47;69.13;95186.34;4974976;28;20492;-83
2021/03/02 03:58:00;;;;;;;22.35;13.55;;;;;;;2.80;69.53;95251.50;4937541;28;20407;-83
2021/03/02 04:00:32;;;;;;;20.30;13.35;;;;;;;2.69;68.86;95215.59;4933866;28;20114;-83
2021/03/02 04:03:11;;;;;;;;;;;;;;;;;;;;;
2021/03/02 04:05:46;;;;;;;22.48;13.93;;;;;;;2.81;68.28;95228.81;4904570;28;20069;-83
2021/03/02 04:08:23;;;;;;;18.95;12.45;;;;;;;2.42;68.37;95178.34;4920698;28;20130;-83
2021/03/02 04:11:01;;;;;;;16.70;12.25;;;;;;;2.74;68.15;95235.84;4954357;28;21214;-83
2021/03/02 04:13:37;;;;;;;;;;;;;;;;;;;;;
2021/03/02 04:16:09;;;;;;;17.25;11.10;;;;;;;2.55;67.80;95209.59;4901175;28;20264;-83
2021/03/02 04:18:38;;;;;;;17.42;10.73;;;;;;;2.57;67.99;95212.81;4953670;28;20048;-83
2021/03/02 04:21:12;;;;;;;15.48;11.38;;;;;;;2.80;67.85;95259.34;4932891;28;20193;-83
2021/03/02 04:23:43;;;;;;;16.38;9.80;;;;;;;2.81;67.92;95270.59;4890727;28;20043;-83
2021/03/02 04:26:12;;;;;;;13.70;10.00;;;;;;;2.70;67.88;95258.97;4902336;28;20052;-83
2021/03/02 04:28:49;;;;;;;14.57;9.88;;;;;;;2.70;68.08;95264.19;4949872;28;20026;-84
2021/03/02 04:31:57;;;;;;;17.00;10.15;;;;;;;2.17;67.73;95172.97;4939408;28;20070;-84
2021/03/02 04:34:38;;;;;;;;;;;;;;;;;;;;;
2021/03/02 04:37:15;;;;;;;12.98;8.15;;;;;;;2.65;67.30;95256.16;4896268;28;20663;-83
2021/03/02 04:42:52;;;;;;;11.32;8.25;;;;;;;2.12;67.19;95201.47;4901108;28;20119;-83
2021/03/02 04:45:27;;;;;;;11.52;8.25;;;;;;;2.47;67.20;95261.22;4893533;28;20391;-83
2021/03/02 04:48:02;;;;;;;11.60;8.02;;;;;;;2.12;66.74;95208.47;4960492;28;20042;-84
2021/03/02 04:51:15;;;;;;;15.40;10.35;;;;;;;2.38;67.00;95249.38;4896334;28;20107;-83
2021/03/02 04:54:04;;;;;;;16.67;11.57;;;;;;;1.97;68.68;95207.88;4871990;28;20175;-84
2021/03/02 04:57:09;;;;;;;;;;;;;;;;;;;;;
2021/03/02 05:00:12;;;;;;;16.98;11.45;;;;;;;2.25;66.49;95218.09;4858607;28;20631;-84
2021/03/02 05:02:50;;;;;;;8.60;6.38;;;;;;;2.51;65.65;95267.63;4880571;29;20630;-84
2021/03/02 05:05:46;;;;;;;11.00;6.85;;;;;;;2.03;65.95;95194.03;4821789;28;20056;-84
2021/03/02 05:08:51;;;;;;;8.93;5.68;;;;;;;2.48;65.63;95250.59;4862617;29;20037;-84
2021/03/02 05:11:48;;;;;;;7.68;6.32;;;;;;;2.65;65.70;95277.03;4828215;28;20068;-84
2021/03/02 05:17:50;;;;;;;;;;;;;;;;;;;;;
2021/03/02 05:20:53;;;;;;;10.45;7.90;;;;;;;3.14;63.60;95213.84;4818880;28;20054;-84
2021/03/02 05:24:13;;;;;;;;;;;;;;;;;;;;;
2021/03/02 05:33:30;;;;;;;;;;;;;;;;;;;;;
2021/03/02 05:35:57;;;;;;;34.63;21.45;;;;;;;4.61;60.98;95295.34;4865718;28;20047;-84
2021/03/02 05:38:35;;;;;;;27.30;20.23;;;;;;;4.84;60.43;95297.34;4884528;28;20051;-83
2021/03/02 05:41:22;;;;;;;;;;;;;;;;;;;;;
2021/03/02 05:44:37;;;;;;;36.55;22.42;;;;;;;4.78;60.77;95244.03;4896145;28;20043;-83
2021/03/02 05:47:11;;;;;;;42.92;25.08;;;;;;;5.37;60.23;95297.63;4879333;28;20783;-83
2021/03/02 05:52:59;;;;;;;34.00;22.67;;;;;;;6.82;56.53;95292.94;4927093;28;20046;-83
2021/03/02 05:55:48;;;;;;;36.20;21.52;;;;;;;7.78;52.98;95293.09;4852561;29;20313;-83
2021/03/02 05:58:50;;;;;;;32.83;23.52;;;;;;;8.74;50.15;95291.38;4828352;29;20135;-83
2021/03/02 06:01:52;;;;;;;38.50;23.45;;;;;;;9.53;47.36;95278.72;4864854;28;20039;-83
2021/03/02 06:04:28;;;;;;;46.03;25.52;;;;;;;9.32;47.18;95208.31;4870293;29;20044;-83
2021/03/02 06:07:04;;;;;;;44.25;29.42;;;;;;;10.27;45.65;95253.41;4889910;28;20211;-83
2021/03/02 06:09:45;;;;;;;;;;;;;;;11.10;44.10;95291.59;4847909;28;20118;-84
2021/03/02 06:12:50;;;;;;;;;;;;;;;;;;;;;
2021/03/02 06:15:27;;;;;;;50.25;28.35;;;;;;;11.57;42.22;95259.84;4864852;28;20101;-83
2021/03/02 06:18:19;;;;;;;52.80;28.70;;;;;;;11.82;41.30;95226.59;4927215;28;20184;-83
2021/03/02 06:20:47;;;;;;;49.47;30.20;;;;;;;11.86;41.65;95291.22;4930926;28;20142;-83
2021/03/02 06:23:41;;;;;;;54.22;33.70;;;;;;;11.66;41.93;95276.81;4919434;28;20061;-83
2021/03/02 06:26:28;;;;;;;52.03;32.28;;;;;;;12.31;40.94;95283.41;4947272;28;20179;-83
2021/03/02 06:28:57;;;;;;;52.97;32.35;;;;;;;13.18;39.32;95297.50;4934106;28;20025;-83
2021/03/02 06:31:44;;;;;;;53.30;31.42;;;;;;;13.26;38.35;95299.59;4941301;28;20174;-83
2021/03/02 06:34:16;;;;;;;59.70;31.45;;;;;;;13.51;38.20;95290.78;4878432;28;20031;-83
2021/03/02 06:36:54;;;;;;;55.88;30.65;;;;;;;14.15;36.83;95270.31;4965750;28;20088;-82
2021/03/02 06:39:51;;;;;;;60.70;31.67;;;;;;;15.72;34.48;95277.00;4906717;28;20089;-84
2021/03/02 06:45:49;;;;;;;49.50;31.02;;;;;;;16.33;32.72;95278.88;4912357;28;20046;-83
2021/03/02 06:48:35;;;;;;;44.25;28.70;;;;;;;17.00;32.01;95298.19;4919512;28;20419;-84
2021/03/02 06:51:51;;;;;;;58.90;33.90;;;;;;;18.54;29.46;95292.03;4932968;28;20057;-84
2021/03/02 06:54:25;;;;;;;48.33;26.92;;;;;;;18.16;29.07;95242.56;4888800;28;20135;-83
2021/03/02 06:57:18;;;;;;;;;;;;;;;;;;;;;
2021/03/02 07:00:09;;;;;;;34.33;25.70;;;;;;;18.93;27.82;95229.00;4915774;28;20050;-84
2021/03/02 07:02:48;;;;;;;36.00;25.15;;;;;;;18.32;28.90;95229.63;4872004;28;20167;-83
2021/03/02 07:05:29;;;;;;;45.03;26.70;;;;;;;18.05;29.32;95295.47;4938785;28;20030;-83
2021/03/02 07:07:55;;;;;;;41.42;26.05;;;;;;;18.53;27.86;95215.50;4933497;28;20049;-83
2021/03/02 07:10:27;;;;;;;35.28;24.85;;;;;;;19.41;27.60;95262.06;4955202;28;20514;-84
2021/03/02 07:12:58;;;;;;;37.40;23.73;;;;;;;20.47;26.36;95273.66;4894490;28;20092;-84
2021/03/02 07:15:29;;;;;;;39.15;25.65;;;;;;;20.56;26.14;95259.13;4960542;28;20038;-84
2021/03/02 07:17:55;;;;;;;42.50;25.40;;;;;;;20.31;25.82;95220.41;4945350;28;20085;-84
2021/03/02 07:20:29;;;;;;;44.50;24.70;;;;;;;20.61;25.33;95210.59;4904719;28;20036;-84
2021/03/02 07:22:58;;;;;;;35.20;24.90;;;;;;;20.99;25.33;95256.41;4918566;28;20023;-84
2021/03/02 07:25:24;;;;;;;39.63;24.02;;;;;;;21.44;24.43;95223.75;4953123;28;20628;-83
2021/03/02 07:28:12;;;;;;;36.05;22.50;;;;;;;23.03;22.92;95237.94;4935810;28;20744;-85
2021/03/02 07:30:54;;;;;;;;;;;;;;;;;;;;;
2021/03/02 07:33:23;;;;;;;28.55;20.58;;;;;;;24.31;21.13;95212.44;4916754;28;20047;-84
2021/03/02 07:35:58;;;;;;;25.15;20.52;;;;;;;24.48;21.29;95255.44;4903977;28;20258;-83
2021/03/02 07:38:29;;;;;;;28.50;20.42;;;;;;;24.92;20.52;95242.84;4920580;28;20046;-84
2021/03/02 07:41:03;;;;;;;24.73;17.25;;;;;;;25.26;20.06;95217.88;4954084;28;20068;-83
2021/03/02 07:43:41;;;;;;;26.20;19.07;;;;;;;25.38;19.53;95244.84;4972112;28;20121;-84
2021/03/02 07:46:41;;;;;;;23.33;17.40;;;;;;;26.05;18.96;95277.47;4911600;28;20316;-83
2021/03/02 07:49:28;;;;;;;25.52;19.20;;;;;;;25.69;19.29;95270.41;4957961;28;20050;-85
2021/03/02 07:52:03;;;;;;;24.42;16.52;;;;;;;25.52;19.56;95260.66;4924089;28;20149;-84
2021/03/02 07:54:46;;;;;;;17.75;13.73;;;;;;;26.80;18.25;95242.00;4898195;28;20058;-83
2021/03/02 07:57:14;;;;;;;11.68;10.20;;;;;;;26.96;17.58;95257.13;4941727;28;20074;-84
2021/03/02 07:59:40;;;;;;;18.90;12.82;;;;;;;27.29;16.98;95237.59;4943720;28;20085;-84
2021/03/02 08:02:17;;;;;;;19.15;13.55;;;;;;;27.08;17.75;95208.13;4956969;28;20082;-84
2021/03/02 08:04:57;;;;;;;21.63;16.25;;;;;;;28.57;16.92;95254.09;4950825;28;20031;-84
2021/03/02 08:07:28;;;;;;;29.25;20.52;;;;;;;27.99;17.51;95238.06;4974305;28;20026;-85
2021/03/02 08:09:58;;;;;;;31.70;19.70;;;;;;;28.01;17.35;95241.19;4911774;28;20039;-84
2021/03/02 08:12:37;;;;;;;30.33;19.13;;;;;;;28.24;16.90;95211.28;4930789;28;20035;-85
2021/03/02 08:15:30;;;;;;;29.92;18.85;;;;;;;28.50;16.79;95206.97;4931789;28;20043;-84
2021/03/02 08:18:44;;;;;;;18.40;15.50;;;;;;;30.17;15.63;95259.41;4939130;28;20113;-85
2021/03/02 08:21:17;;;;;;;22.67;18.17;;;;;;;30.51;14.93;95260.84;4943065;28;20043;-84
2021/03/02 08:24:05;;;;;;;24.17;16.35;;;;;;;29.31;15.69;95220.84;4914372;28;20423;-84
2021/03/02 08:27:01;;;;;;;;;;;;;;;;;;;;;
2021/03/02 08:30:22;;;;;;;29.70;21.98;;;;;;;28.98;16.49;95259.72;4888398;28;20528;-84
2021/03/02 08:33:28;;;;;;;;;;;;;;;;;;;;;
2021/03/02 08:36:08;;;;;;;39.63;24.00;;;;;;;30.31;14.97;95215.84;4883769;28;20036;-84
2021/03/02 08:38:37;;;;;;;25.02;19.83;;;;;;;30.09;15.55;95253.13;4900175;29;20511;-83
2021/03/02 08:41:37;;;;;;;23.95;18.48;;;;;;;29.84;15.25;95207.69;4900896;28;20050;-83
2021/03/02 08:44:27;;;;;;;27.92;18.63;;;;;;;30.18;15.22;95194.72;4893588;28;20053;-84
2021/03/02 08:47:20;;;;;;;23.15;16.48;;;;;;;30.30;14.72;95247.00;4904436;28;20113;-84
2021/03/02 08:49:51;;;;;;;28.77;16.25;;;;;;;30.18;14.84;95243.81;4925136;28;20026;-84
2021/03/02 08:52:44;;;;;;;16.90;14.18;;;;;;;29.98;14.66;95230.44;4954414;28;20046;-84
2021/03/02 08:55:18;;;;;;;20.55;16.35;;;;;;;28.25;15.60;95233.81;4937982;28;20042;-84
2021/03/02 08:57:52;;;;;;;19.33;14.45;;;;;;;27.13;16.39;95221.41;4913222;28;20047;-84
2021/03/02 09:00:18;;;;;;;8.25;6.50;;;;;;;27.22;15.06;95183.16;4946590;28;20066;-84
2021/03/02 09:02:47;;;;;;;10.98;9.15;;;;;;;27.79;15.31;95212.13;4927800;28;20126;-85
2021/03/02 09:05:38;;;;;;;12.73;7.50;;;;;;;27.19;14.96;95174.97;4947756;28;20042;-84
2021/03/02 09:08:07;;;;;;;7.60;4.60;;;;;;;27.36;14.88;95197.00;4939471;28;20058;-83
2021/03/02 09:10:37;;;;;;;5.78;3.80;;;;;;;26.79;14.92;95235.00;4956679;28;20487;-84
2021/03/02 09:13:16;;;;;;;8.02;6.15;;;;;;;26.25;14.95;95225.75;4953606;28;20046;-86
2021/03/02 09:15:44;;;;;;;5.15;4.65;;;;;;;25.79;15.64;95199.50;4942091;28;20046;-84
2021/03/02 09:18:15;;;;;;;5.50;4.65;;;;;;;26.36;15.47;95244.16;4972749;28;20045;-84
2021/03/02 09:21:09;;;;;;;5.78;4.60;;;;;;;26.90;14.70;95253.13;4916895;28;20371;-85
2021/03/02 09:23:51;;;;;;;4.05;3.55;;;;;;;26.59;14.49;95232.28;4882566;28;20047;-85
2021/03/02 09:26:26;;;;;;;4.93;4.43;;;;;;;26.21;14.98;95219.47;4951651;28;20045;-84
2021/03/02 09:29:01;;;;;;;6.57;5.88;;;;;;;26.45;15.59;95228.50;4962585;28;20064;-85
2021/03/02 09:31:30;;;;;;;9.05;6.43;;;;;;;26.26;15.72;95202.94;4977919;28;20026;-85
2021/03/02 09:34:19;;;;;;;7.60;6.32;;;;;;;26.49;15.17;95191.38;4945966;28;20041;-84
2021/03/02 09:36:48;;;;;;;6.22;5.63;;;;;;;26.21;15.29;95172.56;4907473;28;20675;-84
2021/03/02 09:39:28;;;;;;;7.07;6.15;;;;;;;26.29;15.29;95223.88;4965242;28;20040;-84
2021/03/02 09:41:54;;;;;;;11.00;7.38;;;;;;;26.28;15.82;95173.56;4961281;28;20473;-85
2021/03/02 09:44:33;;;;;;;9.52;6.70;;;;;;;26.50;15.80;95233.63;4975784;28;20291;-85
2021/03/02 09:47:23;;;;;;;10.35;6.82;;;;;;;26.05;16.27;95209.75;4971958;28;20506;-83
2021/03/02 09:49:59;;;;;;;10.38;7.32;;;;;;;26.21;16.40;95224.88;4993137;28;20025;-84
2021/03/02 09:52:41;;;;;;;8.48;5.97;;;;;;;25.82;16.86;95198.78;4988768;28;20494;-85
2021/03/02 09:55:19;;;;;;;10.68;5.68;;;;;;;25.13;17.26;95215.56;4958390;28;20050;-84
2021/03/02 09:57:50;;;;;;;7.10;5.60;;;;;;;24.70;17.97;95221.69;4971588;28;20165;-84
2021/03/02 10:00:29;;;;;;;6.18;5.57;;;;;;;24.12;17.51;95196.81;4945735;28;20038;-84
2021/03/02 10:03:12;;;;;;;8.57;5.45;;;;;;;24.00;18.61;95216.50;4959600;28;20512;-85
2021/03/02 10:05:47;;;;;;;10.98;6.63;;;;;;;23.47;18.42;95204.00;4949235;28;20053;-85
2021/03/02 10:08:24;;;;;;;8.38;5.93;;;;;;;23.33;19.92;95225.09;4934583;28;20054;-85
2021/03/02 10:10:53;;;;;;;9.05;6.55;;;;;;;22.63;19.28;95154.09;4959056;28;20594;-83
2021/03/02 10:13:27;;;;;;;17.42;13.40;;;;;;;22.74;19.42;95201.09;4976675;28;20980;-82
2021/03/02 10:16:12;;;;;;;7.88;5.90;;;;;;;22.73;20.51;95223.78;4968873;28;20084;-83
2021/03/02 10:18:51;;;;;;;;;;;;;;;22.66;20.50;95226.22;4971680;28;20454;-83
2021/03/02 10:21:17;;;;;;;6.60;5.88;;;;;;;22.14;20.46;95206.16;4987898;28;19930;-83
2021/03/02 10:23:47;;;;;;;7.70;5.45;;;;;;;22.74;19.44;95217.28;4973470;28;20200;-82
2021/03/02 10:26:23;;;;;;;6.07;5.35;;;;;;;21.59;20.20;95148.69;4968749;28;20494;-83
2021/03/02 10:28:51;;;;;;;9.20;5.15;;;;;;;21.46;20.26;95184.63;4961564;28;20335;-84
2021/03/02 10:31:17;;;;;;;6.30;4.93;;;;;;;21.69;20.55;95171.72;4969364;28;20110;-83
2021/03/02 10:33:42;;;;;;;14.13;9.85;;;;;;;21.84;20.64;95162.31;4956961;28;20047;-84
2021/03/02 10:36:23;;;;;;;23.42;16.65;;;;;;;21.76;20.81;95198.91;4948849;28;20125;-83
2021/03/02 10:38:49;;;;;;;5.97;5.38;;;;;;;21.63;21.47;95201.81;4976706;28;20672;-86
2021/03/02 10:41:15;;;;;;;6.10;5.32;;;;;;;20.95;22.35;95180.22;4959799;28;20189;-83
2021/03/02 10:43:43;;;;;;;5.85;5.10;;;;;;;21.07;22.12;95198.34;4968353;28;20030;-82
2021/03/02 10:46:09;;;;;;;9.82;5.57;;;;;;;21.02;22.49;95185.06;4975078;28;20030;-83
2021/03/02 10:48:34;;;;;;;6.18;5.40;;;;;;;20.75;22.24;95164.75;4969158;28;20057;-83
2021/03/02 10:50:59;;;;;;;6.60;5.60;;;;;;;19.88;22.27;95144.41;4975989;28;20038;-83
2021/03/02 10:53:25;;;;;;;7.20;5.60;;;;;;;19.70;24.12;95156.97;4967879;28;20184;-83
2021/03/02 10:55:54;;;;;;;6.93;5.72;;;;;;;18.74;24.09;95161.44;4989697;28;20547;-85
2021/03/02 10:58:19;;;;;;;9.50;6.18;;;;;;;18.41;24.16;95163.56;4981702;28;20084;-82
2021/03/02 11:00:45;;;;;;;7.50;5.88;;;;;;;17.57;24.95;95123.19;4948834;28;20042;-82
2021/03/02 11:03:15;;;;;;;8.80;6.00;;;;;;;17.59;25.16;95180.63;4951044;28;20411;-83
2021/03/02 11:05:47;;;;;;;8.02;6.03;;;;;;;17.61;26.83;95159.72;4950839;28;20179;-84
2021/03/02 11:08:52;;;;;;;19.23;15.68;;;;;;;17.18;26.08;95137.06;4896788;28;20070;-84
2021/03/02 11:11:36;;;;;;;8.35;5.93;;;;;;;17.05;27.63;95129.84;4936954;28;20389;-84
2021/03/02 11:14:01;;;;;;;12.23;6.45;;;;;;;16.87;27.44;95089.56;4929941;28;22221;-82
2021/03/02 11:16:29;;;;;;;6.88;6.18;;;;;;;16.91;26.99;95094.34;4945617;28;20086;-83
2021/03/02 11:18:58;;;;;;;13.65;8.68;;;;;;;16.77;26.76;95083.63;4984637;28;20081;-83
2021/03/02 11:21:23;;;;;;;18.92;7.63;;;;;;;16.68;26.40;95102.22;4953917;28;20046;-83
2021/03/02 11:23:52;;;;;;;8.77;6.57;;;;;;;16.64;26.10;95137.78;4967294;28;20046;-83
2021/03/02 11:26:18;;;;;;;8.18;6.22;;;;;;;16.53;27.24;95115.00;4960964;28;20050;-84
2021/03/02 11:28:43;;;;;;;11.55;7.03;;;;;;;16.48;28.39;95130.03;4956916;28;20420;-82
2021/03/02 11:31:09;;;;;;;12.60;6.15;;;;;;;16.40;27.86;95119.22;4953953;28;20031;-82
2021/03/02 11:33:37;;;;;;;10.38;7.28;;;;;;;16.21;27.61;95097.94;4950923;28;20043;-83
2021/03/02 11:36:03;;;;;;;7.30;5.90;;;;;;;16.31;27.11;95094.31;4937176;28;20519;-83
2021/03/02 11:38:35;;;;;;;12.10;7.13;;;;;;;16.28;27.10;95098.34;4976373;28;20034;-83
2021/03/02 11:41:03;;;;;;;49.63;29.33;;;;;;;16.52;27.30;95132.88;4969912;28;20050;-83
2021/03/02 11:43:29;;;;;;;15.20;9.93;;;;;;;16.47;29.10;95122.28;4972675;28;20030;-83
2021/03/02 11:45:55;;;;;;;10.75;6.55;;;;;;;16.29;27.86;95094.59;4975490;28;20100;-84
2021/03/02 11:48:21;;;;;;;8.60;6.10;;;;;;;16.35;27.92;95097.97;4968697;28;20363;-82
2021/03/02 11:50:47;;;;;;;7.13;6.38;;;;;;;16.34;27.22;95101.72;4963425;28;20128;-83
2021/03/02 11:53:12;;;;;;;10.07;7.03;;;;;;;16.25;27.28;95104.28;4984991;28;20042;-82
2021/03/02 11:55:38;;;;;;;8.27;6.80;;;;;;;15.98;28.51;95088.94;4966455;28;20038;-83
2021/03/02 11:58:06;;;;;;;6.65;5.95;;;;;;;15.81;28.13;95094.03;4983337;28;20025;-82
2021/03/02 12:00:31;;;;;;;13.68;7.28;;;;;;;15.68;29.49;95077.97;4976790;28;20046;-81
2021/03/02 12:02:58;;;;;;;7.65;5.95;;;;;;;15.72;29.04;95073.66;4967528;28;20052;-83
2021/03/02 12:05:23;;;;;;;12.10;7.22;;;;;;;15.91;29.27;95072.53;4968729;28;20069;-81
2021/03/02 12:07:50;;;;;;;10.18;7.32;;;;;;;15.76;30.41;95064.78;4974227;28;20491;-82
2021/03/02 12:10:26;;;;;;;8.45;6.13;;;;;;;15.70;28.61;95067.78;4972952;28;20010;-83
2021/03/02 12:26:19;;;;;;;8.10;7.05;;;;;;;15.21;29.72;95018.38;4980823;23;20103;-82
2021/03/02 12:28:44;;;;;;;11.60;7.00;;;;;;;15.41;30.28;95047.41;4975909;28;20033;-82
2021/03/02 12:31:10;;;;;;;24.83;13.57;;;;;;;15.30;30.16;95021.19;4975599;28;20029;-84
2021/03/02 12:33:36;;;;;;;21.50;10.77;;;;;;;15.05;29.56;95012.47;4972088;28;20074;-83
2021/03/02 12:36:01;;;;;;;12.38;7.35;;;;;;;15.00;30.39;95012.53;4971896;28;20040;-84
2021/03/02 12:38:27;;;;;;;14.52;8.23;;;;;;;15.20;30.53;95034.66;4976001;28;20133;-82
2021/03/02 12:40:58;;;;;;;9.23;7.78;;;;;;;15.08;29.81;95001.25;4959310;28;20054;-84
2021/03/02 12:43:26;;;;;;;12.57;8.43;;;;;;;14.93;30.53;95025.41;4962915;28;20178;-83
2021/03/02 12:45:52;;;;;;;10.05;7.63;;;;;;;14.55;30.93;94974.00;4975473;28;20050;-83
2021/03/02 12:48:20;;;;;;;10.10;7.97;;;;;;;14.74;31.07;94982.00;4957170;28;20054;-83
2021/03/02 12:50:45;;;;;;;15.82;10.98;;;;;;;15.06;30.84;95008.72;4972760;28;20688;-82
2021/03/02 12:53:10;;;;;;;23.23;13.63;;;;;;;15.18;30.55;95011.78;4974536;28;20046;-82
2021/03/02 12:55:37;;;;;;;15.40;9.20;;;;;;;15.05;31.87;95007.13;4970880;28;20456;-82
2021/03/02 12:58:02;;;;;;;11.55;7.80;;;;;;;15.10;30.80;95003.66;4973316;28;20022;-83
2021/03/02 13:00:28;;;;;;;11.27;7.90;;;;;;;15.11;31.38;95010.53;4973686;28;20639;-83
2021/03/02 13:02:59;;;;;;;10.38;8.00;;;;;;;15.21;30.97;95014.91;4973628;28;20042;-82
2021/03/02 13:05:27;;;;;;;11.13;8.45;;;;;;;14.95;31.23;95015.28;4959638;28;23377;-83
2021/03/02 13:07:55;;;;;;;12.80;8.00;;;;;;;14.31;31.12;94960.69;4960749;28;20037;-82
2021/03/02 13:10:22;;;;;;;10.82;9.15;;;;;;;14.84;31.91;95021.81;4972967;28;20014;-82
2021/03/02 13:12:54;;;;;;;11.07;8.43;;;;;;;14.88;31.61;95012.16;4969232;28;20477;-84
2021/03/02 13:15:20;;;;;;;12.63;8.65;;;;;;;14.91;31.54;95006.25;4964381;28;20419;-82
2021/03/02 13:17:46;;;;;;;11.60;8.70;;;;;;;14.80;31.48;95007.50;4970256;28;20042;-82
2021/03/02 13:20:14;;;;;;;12.27;8.80;;;;;;;14.77;31.64;95008.03;4972043;28;20574;-82
2021/03/02 13:22:40;;;;;;;12.40;8.90;;;;;;;14.76;31.96;94979.06;4968721;28;20876;-83
2021/03/02 13:25:12;;;;;;;12.70;8.13;;;;;;;14.97;31.31;94988.34;4965563;28;20408;-82
2021/03/02 13:27:39;;;;;;;12.25;8.70;;;;;;;15.04;32.25;94994.94;4967959;28;20038;-82
2021/03/02 13:30:08;;;;;;;11.40;8.00;;;;;;;15.24;31.98;95017.03;4959167;28;20054;-81
2021/03/02 13:32:44;;;;;;;11.95;8.50;;;;;;;15.36;31.70;95009.38;4964813;28;20046;-81
2021/03/02 13:35:14;;;;;;;9.57;8.10;;;;;;;15.34;31.76;94995.59;4984269;28;20034;-81
2021/03/02 13:37:42;;;;;;;11.25;8.90;;;;;;;15.10;30.95;94993.75;4967304;28;20053;-81
2021/03/02 13:40:13;;;;;;;12.63;8.95;;;;;;;14.89;31.95;94965.84;4971161;28;20029;-81
2021/03/02 13:42:50;;;;;;;13.40;9.77;;;;;;;14.85;31.63;94964.03;4966451;28;20046;-81
2021/03/02 13:45:18;;;;;;;11.90;8.63;;;;;;;14.92;31.61;94993.75;4961051;28;20065;-83
2021/03/02 13:47:44;;;;;;;15.60;8.90;;;;;;;14.68;31.77;94953.88;4969582;28;20050;-82